createdAt,value
2022-10-12T00:01:16.249Z,101386.16
2022-10-12T00:03:42.488Z,101388.94
2022-10-12T00:06:08.691Z,101394.44
2022-10-12T00:08:34.887Z,101391.16
2022-10-12T00:11:01.176Z,101397.31
2022-10-12T00:13:27.449Z,101399.13
2022-10-12T00:15:53.690Z,101393.13
2022-10-12T00:18:19.941Z,101397.66
2022-10-12T00:20:46.129Z,101399.59
2022-10-12T00:23:12.315Z,101399.53
2022-10-12T00:25:38.573Z,101392.31
2022-10-12T00:28:04.781Z,101390.97
2022-10-12T00:30:31.035Z,101389.09
2022-10-12T00:32:57.377Z,101389.56
2022-10-12T00:35:23.564Z,101394.03
2022-10-12T00:37:49.834Z,101387.59
2022-10-12T00:40:16.017Z,101391.00
2022-10-12T00:42:42.200Z,101396.38
2022-10-12T00:45:08.378Z,101395.63
2022-10-12T00:47:34.698Z,101396.53
2022-10-12T00:50:00.997Z,101397.47
2022-10-12T00:52:27.186Z,101391.75
2022-10-12T00:54:53.381Z,101390.72
2022-10-12T00:57:19.755Z,101391.66
2022-10-12T00:59:46.007Z,101391.75
2022-10-12T01:02:12.198Z,101386.56
2022-10-12T01:04:38.370Z,101391.94
2022-10-12T01:07:04.575Z,101392.00
2022-10-12T01:09:30.760Z,101385.03
2022-10-12T01:11:57.910Z,101383.28
2022-10-12T01:14:24.093Z,101387.03
2022-10-12T01:16:50.272Z,101388.16
2022-10-12T01:19:16.455Z,101380.16
2022-10-12T01:21:42.634Z,101375.75
2022-10-12T01:24:08.814Z,101381.81
2022-10-12T01:26:34.998Z,101378.84
2022-10-12T01:29:01.189Z,101380.44
2022-10-12T01:31:32.237Z,101378.84
2022-10-12T01:33:58.872Z,101389.50
2022-10-12T01:36:25.059Z,101377.13
2022-10-12T01:38:51.260Z,101382.56
2022-10-12T01:41:17.452Z,101379.09
2022-10-12T01:43:43.666Z,101390.66
2022-10-12T01:46:09.861Z,101384.63
2022-10-12T01:48:36.061Z,101382.91
2022-10-12T01:51:02.253Z,101386.31
2022-10-12T01:53:28.760Z,101373.06
2022-10-12T01:55:54.944Z,101381.16
2022-10-12T01:58:21.155Z,101376.75
2022-10-12T02:00:47.456Z,101368.97
2022-10-12T02:03:13.675Z,101369.13
2022-10-12T02:05:39.859Z,101361.97
2022-10-12T02:08:06.053Z,101370.81
2022-10-12T02:10:32.236Z,101359.28
2022-10-12T02:12:58.424Z,101369.19
2022-10-12T02:15:24.666Z,101373.75
2022-10-12T02:17:50.864Z,101371.25
2022-10-12T02:20:17.056Z,101371.34
2022-10-12T02:22:43.234Z,101363.47
2022-10-12T02:25:10.962Z,101376.03
2022-10-12T02:27:37.437Z,101381.47
2022-10-12T02:30:03.834Z,101370.34
2022-10-12T02:32:30.019Z,101376.97
2022-10-12T02:34:56.236Z,101383.78
2022-10-12T02:37:22.423Z,101368.72
2022-10-12T02:39:48.675Z,101373.13
2022-10-12T02:42:14.855Z,101360.66
2022-10-12T02:44:41.236Z,101367.16
2022-10-12T02:47:07.438Z,101374.97
2022-10-12T02:49:33.614Z,101366.00
2022-10-12T02:51:59.804Z,101368.81
2022-10-12T02:54:25.991Z,101365.28
2022-10-12T02:56:52.176Z,101365.59
2022-10-12T02:59:18.660Z,101373.47
2022-10-12T03:01:44.900Z,101375.69
2022-10-12T03:04:11.312Z,101379.88
2022-10-12T03:06:37.504Z,101371.06
2022-10-12T03:09:05.104Z,101378.34
2022-10-12T03:11:31.367Z,101378.25
2022-10-12T03:13:57.556Z,101370.38
2022-10-12T03:16:23.780Z,101372.91
2022-10-12T03:18:51.317Z,101373.22
2022-10-12T03:21:17.563Z,101365.09
2022-10-12T03:23:43.746Z,101366.78
2022-10-12T03:26:09.925Z,101370.41
2022-10-12T03:28:36.149Z,101366.78
2022-10-12T03:31:02.344Z,101365.13
2022-10-12T03:33:28.566Z,101361.59
2022-10-12T03:35:54.779Z,101362.56
2022-10-12T03:38:20.984Z,101361.00
2022-10-12T03:40:47.176Z,101362.84
2022-10-12T03:43:13.414Z,101362.94
2022-10-12T03:45:39.601Z,101361.06
2022-10-12T03:48:05.792Z,101362.94
2022-10-12T03:50:34.667Z,101357.50
2022-10-12T03:53:00.863Z,101373.47
2022-10-12T03:55:27.076Z,101361.97
2022-10-12T03:57:53.256Z,101364.88
2022-10-12T04:00:19.441Z,101364.69
2022-10-12T04:02:45.631Z,101367.22
2022-10-12T04:05:11.815Z,101370.00
2022-10-12T04:07:38.208Z,101359.66
2022-10-12T04:10:04.727Z,101359.69
2022-10-12T04:12:30.902Z,101360.06
2022-10-12T04:14:57.133Z,101359.97
2022-10-12T04:17:23.472Z,101371.56
2022-10-12T04:19:49.728Z,101360.84
2022-10-12T04:22:16.162Z,101360.22
2022-10-12T04:24:43.612Z,101361.13
2022-10-12T04:27:09.882Z,101347.06
2022-10-12T04:29:37.096Z,101357.91
2022-10-12T04:32:03.290Z,101355.66
2022-10-12T04:34:29.474Z,101355.47
2022-10-12T04:36:55.659Z,101350.78
2022-10-12T04:39:21.847Z,101347.09
2022-10-12T04:41:48.034Z,101362.09
2022-10-12T04:44:14.267Z,101353.56
2022-10-12T04:46:40.480Z,101353.72
2022-10-12T04:49:06.684Z,101356.19
2022-10-12T04:51:32.987Z,101361.50
2022-10-12T04:53:59.227Z,101353.28
2022-10-12T04:56:25.410Z,101354.13
2022-10-12T04:58:51.591Z,101359.44
2022-10-12T05:01:18.136Z,101354.22
2022-10-12T05:03:44.631Z,101362.16
2022-10-12T05:06:10.871Z,101356.19
2022-10-12T05:08:37.070Z,101361.50
2022-10-12T05:11:03.250Z,101358.06
2022-10-12T05:13:29.909Z,101363.22
2022-10-12T05:15:56.109Z,101359.03
2022-10-12T05:18:22.332Z,101362.81
2022-10-12T05:20:57.038Z,101365.38
2022-10-12T05:23:23.567Z,101360.88
2022-10-12T05:25:49.747Z,101357.38
2022-10-12T05:28:15.978Z,101359.09
2022-10-12T05:30:42.195Z,101364.28
2022-10-12T05:33:08.569Z,101364.38
2022-10-12T05:35:34.855Z,101368.22
2022-10-12T05:38:01.402Z,101359.25
2022-10-12T05:40:28.700Z,101357.66
2022-10-12T05:42:54.891Z,101360.25
2022-10-12T05:45:21.354Z,101355.66
2022-10-12T05:47:47.580Z,101359.16
2022-10-12T05:50:13.762Z,101357.44
2022-10-12T05:52:40.359Z,101363.59
2022-10-12T05:55:06.896Z,101361.53
2022-10-12T05:57:33.126Z,101356.94
2022-10-12T05:59:59.333Z,101363.81
2022-10-12T06:02:25.555Z,101358.47
2022-10-12T06:04:51.744Z,101360.16
2022-10-12T06:07:17.970Z,101368.03
2022-10-12T06:09:44.751Z,101365.03
2022-10-12T06:12:10.952Z,101376.28
2022-10-12T06:14:37.143Z,101363.66
2022-10-12T06:17:03.357Z,101369.03
2022-10-12T06:19:29.548Z,101368.97
2022-10-12T06:21:59.251Z,101378.59
2022-10-12T06:24:25.434Z,101373.97
2022-10-12T06:26:51.631Z,101375.44
2022-10-12T06:29:17.802Z,101377.97
2022-10-12T06:31:47.643Z,101371.66
2022-10-12T06:34:16.741Z,101373.22
2022-10-12T06:36:43.000Z,101381.06
2022-10-12T06:39:09.193Z,101381.06
2022-10-12T06:41:35.524Z,101370.06
2022-10-12T06:44:01.711Z,101379.28
2022-10-12T06:46:27.928Z,101385.63
2022-10-12T06:48:54.134Z,101381.47
2022-10-12T06:51:20.375Z,101390.81
2022-10-12T06:53:46.565Z,101388.91
2022-10-12T06:56:12.791Z,101390.09
2022-10-12T06:58:39.039Z,101390.41
2022-10-12T07:01:05.259Z,101388.44
2022-10-12T07:03:31.433Z,101386.41
2022-10-12T07:05:57.634Z,101388.44
2022-10-12T07:08:23.818Z,101376.38
2022-10-12T07:10:49.991Z,101387.69
2022-10-12T07:13:16.185Z,101383.75
2022-10-12T07:15:42.371Z,101388.63
2022-10-12T07:18:08.570Z,101382.91
2022-10-12T07:20:34.742Z,101385.66
2022-10-12T07:23:00.918Z,101375.63
2022-10-12T07:25:27.112Z,101385.84
2022-10-12T07:27:53.358Z,101378.97
2022-10-12T07:30:19.618Z,101376.25
2022-10-12T07:32:46.950Z,101380.59
2022-10-12T07:35:13.205Z,101370.97
2022-10-12T07:37:39.699Z,101372.63
2022-10-12T07:40:06.122Z,101365.88
2022-10-12T07:42:32.370Z,101370.31
2022-10-12T07:44:58.619Z,101358.03
2022-10-12T07:47:24.806Z,101356.38
2022-10-12T07:49:51.084Z,101368.34
2022-10-12T07:52:17.528Z,101359.25
2022-10-12T07:54:43.819Z,101359.44
2022-10-12T07:57:10.094Z,101355.31
2022-10-12T07:59:36.347Z,101365.88
2022-10-12T08:02:02.731Z,101354.09
2022-10-12T08:04:29.026Z,101353.44
2022-10-12T08:06:55.490Z,101361.66
2022-10-12T08:09:21.727Z,101362.34
2022-10-12T08:11:47.998Z,101359.72
2022-10-12T08:14:14.712Z,101361.72
2022-10-12T08:16:40.993Z,101353.63
2022-10-12T08:19:07.255Z,101351.44
2022-10-12T08:21:33.500Z,101345.94
2022-10-12T08:23:59.758Z,101345.13
2022-10-12T08:26:26.023Z,101341.53
2022-10-12T08:28:52.728Z,101346.41
2022-10-12T08:31:19.380Z,101343.44
2022-10-12T08:33:45.711Z,101338.09
2022-10-12T08:36:11.950Z,101334.91
2022-10-12T08:38:43.333Z,101339.88
2022-10-12T08:41:09.647Z,101340.59
2022-10-12T08:43:39.024Z,101342.72
2022-10-12T08:46:05.276Z,101346.25
2022-10-12T08:48:31.541Z,101340.09
2022-10-12T08:53:29.087Z,101337.50
2022-10-12T08:55:56.768Z,101328.94
2022-10-12T08:58:23.016Z,101328.03
2022-10-12T09:00:49.308Z,101322.13
2022-10-12T09:03:15.579Z,101330.16
2022-10-12T09:05:41.890Z,101318.84
2022-10-12T09:08:08.168Z,101325.00
2022-10-12T09:10:34.507Z,101319.59
2022-10-12T09:13:00.799Z,101320.50
2022-10-12T09:15:27.060Z,101320.50
2022-10-12T09:17:53.306Z,101325.53
2022-10-12T09:20:19.743Z,101319.28
2022-10-12T09:22:45.987Z,101321.06
2022-10-12T09:25:12.511Z,101309.25
2022-10-12T09:27:42.924Z,101307.41
2022-10-12T09:30:11.285Z,101308.19
2022-10-12T09:32:37.540Z,101311.97
2022-10-12T09:35:04.208Z,101314.16
2022-10-12T09:37:30.468Z,101314.34
2022-10-12T09:39:56.741Z,101305.09
2022-10-12T09:42:23.012Z,101300.09
2022-10-12T09:44:49.374Z,101302.03
2022-10-12T09:47:15.647Z,101298.66
2022-10-12T09:49:41.912Z,101298.50
2022-10-12T09:52:08.175Z,101295.78
2022-10-12T09:54:34.498Z,101291.75
2022-10-12T09:57:00.769Z,101299.34
2022-10-12T09:59:27.382Z,101297.34
2022-10-12T10:01:53.648Z,101297.13
2022-10-12T10:04:20.051Z,101287.31
2022-10-12T10:06:46.356Z,101286.97
2022-10-12T10:09:12.594Z,101284.50
2022-10-12T10:11:39.511Z,101277.94
2022-10-12T10:14:05.785Z,101278.09
2022-10-12T10:16:32.094Z,101275.25
2022-10-12T10:18:58.371Z,101268.25
2022-10-12T10:21:24.610Z,101271.38
2022-10-12T10:23:51.248Z,101267.16
2022-10-12T10:28:44.749Z,101267.78
2022-10-12T10:31:11.047Z,101277.19
2022-10-12T10:33:37.506Z,101273.44
2022-10-12T10:36:04.140Z,101262.13
2022-10-12T10:38:30.473Z,101260.88
2022-10-12T10:40:57.194Z,101263.03
2022-10-12T10:43:23.768Z,101255.59
2022-10-12T10:45:50.034Z,101256.06
2022-10-12T10:48:16.311Z,101249.00
2022-10-12T10:50:42.559Z,101255.41
2022-10-12T10:53:08.892Z,101250.34
2022-10-12T10:55:35.146Z,101250.97
2022-10-12T10:58:01.407Z,101254.38
2022-10-12T11:00:43.292Z,101245.22
2022-10-12T11:03:09.991Z,101247.22
2022-10-12T11:05:36.333Z,101239.47
2022-10-12T11:08:02.615Z,101239.84
2022-10-12T11:10:29.125Z,101238.97
2022-10-12T11:12:55.384Z,101234.25
2022-10-12T11:15:21.935Z,101233.56
2022-10-12T11:17:48.291Z,101227.19
2022-10-12T11:20:17.341Z,101223.28
2022-10-12T11:22:46.022Z,101219.25
2022-10-12T11:25:12.279Z,101216.19
2022-10-12T11:27:38.575Z,101217.66
2022-10-12T11:30:11.636Z,101212.84
2022-10-12T11:32:37.946Z,101211.25
2022-10-12T11:35:04.239Z,101205.97
2022-10-12T11:37:30.625Z,101206.22
2022-10-12T11:39:56.872Z,101200.91
2022-10-12T11:42:23.228Z,101196.72
2022-10-12T11:44:49.490Z,101203.66
2022-10-12T11:47:15.781Z,101195.03
2022-10-12T11:49:42.044Z,101197.00
2022-10-12T11:52:08.325Z,101195.28
2022-10-12T11:54:34.590Z,101199.09
2022-10-12T11:57:00.841Z,101191.44
2022-10-12T11:59:27.157Z,101187.16
2022-10-12T12:01:53.406Z,101189.00
2022-10-12T12:04:50.516Z,101186.53
2022-10-12T12:07:07.126Z,101182.00
2022-10-12T12:09:33.394Z,101174.72
2022-10-12T12:11:59.638Z,101175.84
2022-10-12T12:14:25.913Z,101166.72
2022-10-12T12:16:52.174Z,101169.69
2022-10-12T12:19:18.513Z,101164.41
2022-10-12T12:21:44.780Z,101166.63
2022-10-12T12:24:11.054Z,101160.72
2022-10-12T12:26:37.316Z,101156.38
2022-10-12T12:29:03.585Z,101160.22
2022-10-12T12:31:30.442Z,101154.69
2022-10-12T12:33:56.707Z,101153.06
2022-10-12T12:36:22.958Z,101153.56
2022-10-12T12:38:49.305Z,101146.91
2022-10-12T12:41:15.611Z,101145.34
2022-10-12T12:43:41.862Z,101153.28
2022-10-12T12:46:08.247Z,101149.63
2022-10-12T12:48:34.527Z,101142.34
2022-10-12T12:51:00.919Z,101143.72
2022-10-12T12:53:27.192Z,101140.63
2022-10-12T12:55:53.469Z,101150.59
2022-10-12T12:58:19.878Z,101138.66
2022-10-12T13:03:18.970Z,101128.53
2022-10-12T13:05:45.244Z,101144.09
2022-10-12T13:08:11.522Z,101134.31
2022-10-12T13:10:37.782Z,101123.97
2022-10-12T13:13:04.507Z,101122.41
2022-10-12T13:15:30.753Z,101129.19
2022-10-12T13:17:57.649Z,101121.28
2022-10-12T13:20:23.932Z,101117.06
2022-10-12T13:22:50.398Z,101125.31
2022-10-12T13:25:16.775Z,101116.22
2022-10-12T13:27:43.033Z,101110.06
2022-10-12T13:30:09.341Z,101107.81
2022-10-12T13:32:35.610Z,101111.56
2022-10-12T13:35:02.367Z,101111.84
2022-10-12T13:37:28.635Z,101112.03
2022-10-12T13:39:56.189Z,101103.25
2022-10-12T13:42:22.453Z,101103.91
2022-10-12T13:44:48.759Z,101095.91
2022-10-12T13:47:15.060Z,101096.56
2022-10-12T13:49:41.324Z,101097.28
2022-10-12T13:52:07.590Z,101089.88
2022-10-12T13:54:33.859Z,101092.56
2022-10-12T13:57:00.197Z,101091.22
2022-10-12T13:59:26.595Z,101081.13
2022-10-12T14:01:52.848Z,101078.75
2022-10-12T14:04:19.158Z,101077.41
2022-10-12T14:06:45.426Z,101073.66
2022-10-12T14:09:11.699Z,101077.78
2022-10-12T14:11:37.980Z,101070.69
2022-10-12T14:14:04.354Z,101073.75
2022-10-12T14:16:30.719Z,101068.31
2022-10-12T14:18:56.993Z,101063.50
2022-10-12T14:21:23.573Z,101058.28
2022-10-12T14:23:49.877Z,101060.59
2022-10-12T14:26:16.191Z,101062.19
2022-10-12T14:28:42.561Z,101061.81
2022-10-12T14:31:08.852Z,101061.53
2022-10-12T14:33:35.128Z,101062.31
2022-10-12T14:36:01.397Z,101061.00
2022-10-12T14:38:27.651Z,101058.00
2022-10-12T14:40:53.911Z,101048.53
2022-10-12T14:43:20.479Z,101047.41
2022-10-12T14:45:46.751Z,101042.84
2022-10-12T14:48:13.006Z,101043.50
2022-10-12T14:50:39.268Z,101040.53
2022-10-12T14:53:06.541Z,101049.25
2022-10-12T14:55:32.860Z,101049.03
2022-10-12T14:57:59.676Z,101048.06
2022-10-12T15:00:25.938Z,101040.81
2022-10-12T15:02:52.194Z,101034.75
2022-10-12T15:05:18.611Z,101035.13
2022-10-12T15:07:46.805Z,101034.66
2022-10-12T15:10:13.681Z,101031.81
2022-10-12T15:12:40.015Z,101025.69
2022-10-12T15:15:06.309Z,101030.22
2022-10-12T15:17:32.590Z,101025.94
2022-10-12T15:19:58.861Z,101025.22
2022-10-12T15:22:25.153Z,101016.34
2022-10-12T15:24:51.411Z,101018.00
2022-10-12T15:27:17.668Z,101016.88
2022-10-12T15:29:43.957Z,101019.09
2022-10-12T15:32:10.223Z,101022.41
2022-10-12T15:34:36.475Z,101016.75
2022-10-12T15:37:06.562Z,101027.34
2022-10-12T15:39:35.212Z,101021.31
2022-10-12T15:42:01.475Z,101031.78
2022-10-12T15:44:27.735Z,101027.72
2022-10-12T15:46:53.986Z,101028.69
2022-10-12T15:49:21.771Z,101025.50
2022-10-12T15:51:48.043Z,101025.03
2022-10-12T15:54:14.328Z,101028.84
2022-10-12T15:56:40.597Z,101024.78
2022-10-12T15:59:06.862Z,101020.22
2022-10-12T16:01:33.144Z,101028.47
2022-10-12T16:03:59.415Z,101024.66
2022-10-12T16:06:29.319Z,101021.56
2022-10-12T16:08:55.604Z,101017.28
2022-10-12T16:11:21.909Z,101018.41
2022-10-12T16:13:55.449Z,101021.31
2022-10-12T16:16:22.675Z,101020.59
2022-10-12T16:18:48.964Z,101023.06
2022-10-12T16:21:15.243Z,101022.78
2022-10-12T16:23:41.532Z,101021.47
2022-10-12T16:26:07.832Z,101021.84
2022-10-12T16:28:34.130Z,101013.72
2022-10-12T16:31:00.446Z,101027.00
2022-10-12T16:33:30.113Z,101020.31
2022-10-12T16:35:56.548Z,101018.88
2022-10-12T16:38:22.797Z,101027.19
2022-10-12T16:40:49.676Z,101030.69
2022-10-12T16:43:15.932Z,101029.69
2022-10-12T16:45:42.186Z,101025.81
2022-10-12T16:48:08.440Z,101040.56
2022-10-12T16:50:39.801Z,101029.00
2022-10-12T16:53:06.073Z,101036.75
2022-10-12T16:55:32.345Z,101035.47
2022-10-12T16:57:58.653Z,101031.31
2022-10-12T17:00:25.020Z,101038.03
2022-10-12T17:02:55.272Z,101032.19
2022-10-12T17:05:23.618Z,101039.94
2022-10-12T17:07:49.876Z,101037.75
2022-10-12T17:10:16.196Z,101031.25
2022-10-12T17:12:42.454Z,101040.09
2022-10-12T17:15:08.711Z,101038.56
2022-10-12T17:17:35.014Z,101044.66
2022-10-12T17:22:28.883Z,101046.66
2022-10-12T17:24:55.152Z,101043.34
2022-10-12T17:27:21.418Z,101041.53
2022-10-12T17:29:47.743Z,101057.97
2022-10-12T17:32:14.313Z,101048.66
2022-10-12T17:34:40.891Z,101061.22
2022-10-12T17:37:07.174Z,101051.53
2022-10-12T17:39:33.437Z,101053.59
2022-10-12T17:41:59.707Z,101052.75
2022-10-12T17:44:26.071Z,101051.13
2022-10-12T17:46:52.323Z,101048.97
2022-10-12T17:49:23.523Z,101051.78
2022-10-12T17:51:51.035Z,101051.34
2022-10-12T17:54:17.286Z,101045.00
2022-10-12T17:56:43.544Z,101047.03
2022-10-12T17:59:09.931Z,101042.97
2022-10-12T18:01:36.219Z,101042.75
2022-10-12T18:04:02.527Z,101038.75
2022-10-12T18:06:29.014Z,101043.50
2022-10-12T18:08:56.560Z,101044.34
2022-10-12T18:11:22.818Z,101045.63
2022-10-12T18:13:49.078Z,101045.22
2022-10-12T18:16:15.321Z,101047.69
2022-10-12T18:18:41.927Z,101047.34
2022-10-12T18:21:08.200Z,101038.31
2022-10-12T18:23:34.446Z,101041.31
2022-10-12T18:26:00.702Z,101038.84
2022-10-12T18:28:27.004Z,101040.66
2022-10-12T18:30:53.313Z,101040.13
2022-10-12T18:33:19.567Z,101045.34
2022-10-12T18:35:45.849Z,101043.81
2022-10-12T18:38:12.097Z,101042.50
2022-10-12T18:40:41.987Z,101044.66
2022-10-12T18:43:08.694Z,101038.34
2022-10-12T18:45:34.972Z,101032.75
2022-10-12T18:48:01.214Z,101042.56
2022-10-12T18:50:27.467Z,101036.06
2022-10-12T18:52:53.719Z,101040.53
2022-10-12T18:55:19.974Z,101042.50
2022-10-12T18:57:46.226Z,101046.88
2022-10-12T19:00:12.481Z,101033.06
2022-10-12T19:02:38.764Z,101037.59
2022-10-12T19:05:05.033Z,101033.50
2022-10-12T19:07:31.380Z,101038.03
2022-10-12T19:09:57.687Z,101035.41
2022-10-12T19:12:23.938Z,101034.03
2022-10-12T19:14:50.196Z,101036.34
2022-10-12T19:17:16.457Z,101037.25
2022-10-12T19:19:42.727Z,101044.69
2022-10-12T19:22:08.970Z,101046.00
2022-10-12T19:24:35.224Z,101051.38
2022-10-12T19:27:01.487Z,101033.63
2022-10-12T19:29:27.731Z,101040.75
2022-10-12T19:31:53.981Z,101039.22
2022-10-12T19:34:20.245Z,101035.75
2022-10-12T19:36:46.490Z,101035.97
2022-10-12T19:39:12.743Z,101040.00
2022-10-12T19:41:39.001Z,101038.19
2022-10-12T19:44:05.257Z,101020.88
2022-10-12T19:46:31.716Z,101021.66
2022-10-12T19:48:57.977Z,101024.81
2022-10-12T19:51:24.309Z,101024.06
2022-10-12T19:53:50.555Z,101021.38
2022-10-12T19:56:16.816Z,101015.34
2022-10-12T19:58:43.077Z,101009.56
2022-10-12T20:01:09.440Z,101003.41
2022-10-12T20:03:35.954Z,101005.63
2022-10-12T20:06:05.956Z,101019.53
2022-10-12T20:08:32.912Z,101012.44
2022-10-12T20:10:59.181Z,101010.91
2022-10-12T20:13:25.505Z,101011.28
2022-10-12T20:15:51.753Z,101010.06
2022-10-12T20:18:17.994Z,101014.56
2022-10-12T20:20:44.244Z,101023.94
2022-10-12T20:23:10.517Z,101014.91
2022-10-12T20:25:36.795Z,101027.19
2022-10-12T20:28:03.995Z,101025.28
2022-10-12T20:30:30.190Z,101025.22
2022-10-12T20:32:56.584Z,101016.22
2022-10-12T20:35:22.830Z,101014.03
2022-10-12T20:37:49.073Z,101029.75
2022-10-12T20:40:15.327Z,101024.66
2022-10-12T20:42:41.587Z,101023.59
2022-10-12T20:45:09.428Z,101026.56
2022-10-12T20:47:35.674Z,101029.16
2022-10-12T20:50:02.163Z,101015.44
2022-10-12T20:52:28.457Z,101020.91
2022-10-12T20:54:54.747Z,101023.16
2022-10-12T20:57:21.011Z,101014.72
2022-10-12T20:59:48.902Z,101016.56
2022-10-12T21:02:15.577Z,101012.91
2022-10-12T21:04:42.296Z,101013.91
2022-10-12T21:07:08.564Z,101009.28
2022-10-12T21:09:34.820Z,101002.13
2022-10-12T21:12:01.080Z,101011.56
2022-10-12T21:14:27.322Z,101002.66
2022-10-12T21:16:53.571Z,100996.88
2022-10-12T21:19:19.816Z,100992.56
2022-10-12T21:21:49.074Z,100987.13
2022-10-12T21:24:15.387Z,100989.19
2022-10-12T21:26:41.661Z,101001.19
2022-10-12T21:29:07.908Z,101005.22
2022-10-12T21:31:34.189Z,101004.53
2022-10-12T21:34:01.285Z,101009.22
2022-10-12T21:36:27.527Z,101005.22
2022-10-12T21:38:53.799Z,101003.78
2022-10-12T21:41:20.165Z,101000.66
2022-10-12T21:43:46.451Z,101004.97
2022-10-12T21:46:12.696Z,100993.91
2022-10-12T21:48:38.963Z,100991.22
2022-10-12T21:51:05.514Z,101002.63
2022-10-12T21:53:31.825Z,101002.28
2022-10-12T21:55:58.080Z,101003.41
2022-10-12T21:58:24.326Z,101002.47
2022-10-12T22:00:50.617Z,100994.59
2022-10-12T22:03:17.034Z,101002.63
2022-10-12T22:05:43.290Z,101008.34
2022-10-12T22:08:09.576Z,100999.63
2022-10-12T22:10:36.099Z,101002.47
2022-10-12T22:13:02.346Z,100993.78
2022-10-12T22:15:28.621Z,100995.78
2022-10-12T22:17:54.880Z,100991.63
2022-10-12T22:20:21.169Z,100995.50
2022-10-12T22:22:47.425Z,100995.16
2022-10-12T22:25:13.817Z,100996.03
2022-10-12T22:27:40.074Z,100993.56
2022-10-12T22:30:06.357Z,100995.50
2022-10-12T22:32:32.594Z,100995.56
2022-10-12T22:34:59.085Z,100987.53
2022-10-12T22:37:25.353Z,100984.00
2022-10-12T22:39:51.691Z,100981.66
2022-10-12T22:42:18.195Z,100983.16
2022-10-12T22:44:44.703Z,100982.03
2022-10-12T22:47:10.986Z,100983.94
2022-10-12T22:49:37.258Z,100985.63
2022-10-12T22:52:03.510Z,100978.81
2022-10-12T22:54:29.788Z,100983.97
2022-10-12T22:56:56.088Z,100980.97
2022-10-12T22:59:22.383Z,100981.09
2022-10-12T23:01:48.717Z,100978.91
2022-10-12T23:04:14.998Z,100980.91
2022-10-12T23:06:41.253Z,100973.66
2022-10-12T23:09:07.521Z,100975.53
2022-10-12T23:11:33.971Z,100974.94
2022-10-12T23:14:00.268Z,100981.94
2022-10-12T23:16:26.561Z,100980.03
2022-10-12T23:18:58.051Z,100978.59
2022-10-12T23:21:25.436Z,100967.09
2022-10-12T23:23:51.682Z,100977.25
2022-10-12T23:26:17.948Z,100974.16
2022-10-12T23:28:44.284Z,100978.47
2022-10-12T23:31:10.645Z,100972.69
2022-10-12T23:33:36.943Z,100970.97
2022-10-12T23:36:03.205Z,100976.16
2022-10-12T23:38:29.460Z,100972.97
2022-10-12T23:40:58.751Z,100969.50
2022-10-12T23:43:25.994Z,100963.91
2022-10-12T23:45:52.372Z,100970.38
2022-10-12T23:48:18.621Z,100968.34
2022-10-12T23:50:46.423Z,100971.88
2022-10-12T23:53:12.678Z,100975.19
2022-10-12T23:55:38.955Z,100964.34
2022-10-12T23:58:05.194Z,100962.44
